ESMT

Halmstad Airport

Halmstad, Sweden
METAR ESMT 230950Z VRB01KT 9999 BKN009 M02/M04 Q1029
Observed Flight Rules
Feb-23 @ 09:50 UTC (42 minutes ago) Instrument Flight Rules
Wind Visibility Clouds
Variable at 1 knots 10,000+ meters
  • Broken at 900' AGL
Temperatures Readings
Current -2°C / 28°F
Dewpoint -4°C / 25°F
Humidity 86%
Altimeter 30.38" Hg
Pressure 1029 hPa
Elevation 30
METAR ESMT 230950Z VRB01KT 9999 BKN009 M02/M04 Q1029
Observed Flight Rules
Feb-23 @ 09:50 UTC
(42 minutes ago)
IFR
Wind Visibility
Variable at 1 knots 10,000+ meters
Clouds
  • Broken at 900' AGL
Temperature Dewpoint
-2°C / 28°F -4°C / 25°F
Humidity Altimeter Pressure
86% 30.38" Hg 1029 hPa